createdAt,value
2023-06-06T00:00:22.735Z,70.72
2023-06-06T00:02:51.086Z,70.86
2023-06-06T00:05:18.649Z,70.69
2023-06-06T00:07:47.092Z,70.97
2023-06-06T00:10:16.041Z,70.99
2023-06-06T00:12:44.944Z,71.13
2023-06-06T00:15:13.992Z,71.15
2023-06-06T00:17:42.326Z,71.30
2023-06-06T00:20:10.900Z,71.53
2023-06-06T00:22:37.828Z,71.38
2023-06-06T00:25:05.972Z,71.61
2023-06-06T00:27:34.476Z,71.85
2023-06-06T00:30:01.094Z,72.08
2023-06-06T00:32:28.482Z,72.35
2023-06-06T00:34:55.901Z,72.27
2023-06-06T00:37:22.416Z,71.54
2023-06-06T00:39:48.919Z,72.54
2023-06-06T00:42:15.760Z,72.51
2023-06-06T00:44:42.305Z,72.72
2023-06-06T00:47:09.656Z,72.41
2023-06-06T00:49:37.479Z,71.80
2023-06-06T00:52:04.430Z,72.65
2023-06-06T00:54:33.516Z,73.04
2023-06-06T00:57:01.436Z,72.78
2023-06-06T00:59:28.205Z,73.16
2023-06-06T01:01:54.994Z,73.30
2023-06-06T01:04:21.962Z,73.10
2023-06-06T01:06:48.435Z,73.41
2023-06-06T01:09:17.296Z,73.00
2023-06-06T01:12:28.692Z,73.14
2023-06-06T01:15:10.930Z,73.01
2023-06-06T01:17:39.863Z,73.11
2023-06-06T01:20:08.093Z,73.66
2023-06-06T01:22:37.064Z,73.76
2023-06-06T01:25:04.704Z,74.01
2023-06-06T01:27:34.363Z,73.69
2023-06-06T01:30:04.364Z,74.11
2023-06-06T01:32:46.982Z,74.13
2023-06-06T01:35:24.588Z,74.19
2023-06-06T01:38:01.614Z,74.22
2023-06-06T01:40:31.335Z,74.54
2023-06-06T01:42:58.191Z,74.25
2023-06-06T01:45:30.581Z,74.43
2023-06-06T01:47:59.149Z,74.50
2023-06-06T01:50:25.690Z,74.89
2023-06-06T01:52:56.111Z,74.48
2023-06-06T01:55:23.161Z,74.72
2023-06-06T01:57:49.996Z,75.09
2023-06-06T02:00:18.445Z,74.86
2023-06-06T02:02:45.009Z,74.91
2023-06-06T02:05:12.470Z,75.25
2023-06-06T02:07:39.020Z,74.28
2023-06-06T02:10:06.150Z,75.32
2023-06-06T02:12:32.793Z,74.88
2023-06-06T02:15:00.009Z,75.46
2023-06-06T02:17:27.805Z,75.72
2023-06-06T02:19:54.273Z,75.61
2023-06-06T02:22:20.922Z,75.68
2023-06-06T02:24:47.602Z,76.25
2023-06-06T02:27:16.088Z,76.24
2023-06-06T02:29:42.537Z,76.23
2023-06-06T02:32:11.485Z,76.06
2023-06-06T02:34:38.138Z,76.23
2023-06-06T02:37:07.775Z,76.63
2023-06-06T02:39:37.379Z,76.46
2023-06-06T02:42:04.577Z,76.67
2023-06-06T02:44:32.085Z,76.48
2023-06-06T02:46:58.709Z,76.54
2023-06-06T02:49:25.215Z,76.80
2023-06-06T02:51:51.596Z,77.03
2023-06-06T02:54:18.144Z,76.48
2023-06-06T02:56:44.573Z,76.63
2023-06-06T02:59:10.940Z,76.83
2023-06-06T03:01:38.072Z,76.90
2023-06-06T03:04:05.933Z,77.42
2023-06-06T03:06:33.555Z,77.49
2023-06-06T03:09:05.013Z,77.26
2023-06-06T03:11:32.771Z,77.37
2023-06-06T03:14:00.684Z,77.53
2023-06-06T03:16:29.307Z,77.63
2023-06-06T03:18:56.350Z,77.55
2023-06-06T03:21:22.871Z,77.69
2023-06-06T03:23:49.512Z,77.77
2023-06-06T03:26:16.908Z,77.64
2023-06-06T03:28:44.559Z,77.08
2023-06-06T03:31:11.621Z,77.28
2023-06-06T03:33:38.251Z,77.59
2023-06-06T03:36:08.452Z,78.00
2023-06-06T03:38:35.131Z,77.83
2023-06-06T03:41:03.492Z,78.44
2023-06-06T03:43:30.762Z,78.63
2023-06-06T03:45:57.446Z,78.65
2023-06-06T03:48:23.889Z,77.99
2023-06-06T03:50:50.638Z,78.03
2023-06-06T03:53:17.507Z,78.17
2023-06-06T03:55:45.707Z,78.01
2023-06-06T03:58:14.861Z,78.03
2023-06-06T04:00:41.403Z,78.43
2023-06-06T04:03:08.053Z,78.56
2023-06-06T04:05:36.516Z,78.08
2023-06-06T04:08:03.128Z,78.12
2023-06-06T04:10:29.652Z,78.72
2023-06-06T04:12:56.152Z,78.58
2023-06-06T04:15:22.728Z,78.64
2023-06-06T04:17:49.213Z,78.25
2023-06-06T04:20:15.636Z,78.18
2023-06-06T04:22:42.268Z,78.32
2023-06-06T04:25:08.958Z,78.68
2023-06-06T04:27:38.156Z,78.63
2023-06-06T04:30:06.933Z,78.51
2023-06-06T04:32:33.631Z,78.40
2023-06-06T04:35:00.173Z,78.23
2023-06-06T04:37:29.068Z,78.24
2023-06-06T04:39:58.052Z,78.43
2023-06-06T04:42:27.284Z,78.31
2023-06-06T04:44:54.199Z,78.22
2023-06-06T04:47:20.814Z,78.32
2023-06-06T04:49:48.777Z,78.51
2023-06-06T04:52:15.582Z,78.67
2023-06-06T04:54:42.606Z,78.42
2023-06-06T04:57:10.204Z,78.40
2023-06-06T04:59:38.355Z,78.56
2023-06-06T05:02:05.008Z,78.72
2023-06-06T05:04:32.599Z,78.47
2023-06-06T05:07:00.054Z,78.76
2023-06-06T05:09:27.150Z,78.03
2023-06-06T05:11:55.687Z,78.47
2023-06-06T05:14:26.056Z,78.36
2023-06-06T05:16:53.969Z,78.70
2023-06-06T05:19:21.525Z,78.65
2023-06-06T05:21:48.558Z,78.44
2023-06-06T05:24:15.835Z,78.56
2023-06-06T05:26:45.312Z,78.36
2023-06-06T05:29:11.728Z,79.03
2023-06-06T05:31:38.714Z,78.72
2023-06-06T05:34:05.170Z,79.10
2023-06-06T05:36:31.805Z,78.72
2023-06-06T05:38:58.293Z,78.32
2023-06-06T05:41:24.801Z,78.59
2023-06-06T05:43:51.717Z,78.66
2023-06-06T05:46:18.603Z,78.28
2023-06-06T05:48:45.622Z,78.62
2023-06-06T05:51:12.404Z,78.54
2023-06-06T05:53:45.569Z,78.02
2023-06-06T05:56:13.475Z,77.78
2023-06-06T05:58:42.085Z,77.23
2023-06-06T06:01:10.241Z,77.73
2023-06-06T06:03:37.889Z,77.05
2023-06-06T06:06:06.577Z,77.21
2023-06-06T06:08:35.399Z,77.63
2023-06-06T06:11:02.508Z,77.12
2023-06-06T06:13:29.907Z,76.70
2023-06-06T06:15:56.767Z,76.53
2023-06-06T06:18:23.247Z,76.79
2023-06-06T06:20:49.673Z,76.52
2023-06-06T06:23:16.795Z,76.44
2023-06-06T06:25:44.302Z,76.70
2023-06-06T06:28:23.564Z,76.12
2023-06-06T06:30:50.607Z,76.18
2023-06-06T06:33:17.680Z,75.81
2023-06-06T06:35:45.257Z,75.66
2023-06-06T06:38:12.289Z,75.60
2023-06-06T06:40:38.816Z,75.46
2023-06-06T06:43:06.008Z,74.59
2023-06-06T06:45:32.751Z,74.77
2023-06-06T06:48:00.828Z,74.72
2023-06-06T06:50:27.493Z,74.37
2023-06-06T06:52:54.957Z,74.55
2023-06-06T06:55:24.978Z,73.91
2023-06-06T06:57:52.926Z,73.64
2023-06-06T07:00:23.173Z,71.93
2023-06-06T07:02:51.206Z,72.59
2023-06-06T07:05:18.669Z,72.63
2023-06-06T07:07:50.558Z,71.70
2023-06-06T07:10:17.809Z,71.38
2023-06-06T07:12:48.935Z,71.27
2023-06-06T07:15:16.342Z,71.19
2023-06-06T07:17:52.968Z,70.48
2023-06-06T07:20:25.368Z,70.09
2023-06-06T07:22:56.563Z,69.78
2023-06-06T07:25:23.388Z,69.02
2023-06-06T07:27:49.855Z,68.17
2023-06-06T07:30:16.330Z,68.64
2023-06-06T07:32:44.718Z,68.10
2023-06-06T07:35:20.561Z,67.72
2023-06-06T07:37:47.567Z,67.38
2023-06-06T07:40:14.209Z,66.75
2023-06-06T07:42:41.919Z,66.75
2023-06-06T07:45:09.551Z,66.91
2023-06-06T07:47:36.289Z,65.88
2023-06-06T07:50:04.327Z,66.34
2023-06-06T07:52:33.509Z,65.49
2023-06-06T07:55:01.926Z,66.73
2023-06-06T07:57:28.629Z,66.19
2023-06-06T07:59:55.969Z,65.58
2023-06-06T08:02:22.750Z,65.29
2023-06-06T08:04:49.262Z,64.09
2023-06-06T08:07:16.307Z,63.54
2023-06-06T08:09:44.103Z,63.83
2023-06-06T08:12:12.304Z,63.06
2023-06-06T08:14:38.993Z,62.29
2023-06-06T08:17:07.990Z,62.84
2023-06-06T08:19:35.412Z,61.63
2023-06-06T08:22:02.910Z,61.92
2023-06-06T08:24:30.188Z,61.57
2023-06-06T08:26:57.576Z,61.73
2023-06-06T08:29:24.075Z,61.05
2023-06-06T08:31:51.682Z,60.27
2023-06-06T08:34:18.131Z,60.59
2023-06-06T08:36:45.452Z,60.83
2023-06-06T08:39:12.133Z,59.69
2023-06-06T08:41:43.018Z,59.75
2023-06-06T08:44:10.296Z,59.34
2023-06-06T08:46:38.521Z,58.36
2023-06-06T08:49:05.920Z,59.39
2023-06-06T08:51:32.746Z,58.15
2023-06-06T08:54:01.096Z,58.22
2023-06-06T08:56:28.225Z,57.73
2023-06-06T08:58:55.115Z,57.72
2023-06-06T09:01:22.361Z,56.38
2023-06-06T09:03:53.736Z,56.34
2023-06-06T09:06:23.619Z,57.80
2023-06-06T09:08:50.589Z,56.84
2023-06-06T09:11:18.197Z,56.89
2023-06-06T09:13:46.237Z,55.67
2023-06-06T09:16:15.492Z,54.63
2023-06-06T09:18:42.781Z,55.40
2023-06-06T09:21:09.980Z,55.06
2023-06-06T09:23:37.258Z,53.46
2023-06-06T09:26:04.375Z,52.56
2023-06-06T09:28:38.596Z,54.46
2023-06-06T09:31:28.664Z,54.48
2023-06-06T09:33:59.874Z,53.21
2023-06-06T09:36:28.507Z,51.81
2023-06-06T09:39:13.297Z,52.39
2023-06-06T09:41:47.772Z,53.03
2023-06-06T09:44:25.226Z,53.03
2023-06-06T09:47:03.204Z,53.24
2023-06-06T09:49:35.718Z,52.11
2023-06-06T09:52:04.803Z,52.16
2023-06-06T09:54:32.440Z,50.36
2023-06-06T09:56:59.337Z,51.29
2023-06-06T09:59:26.508Z,51.46
2023-06-06T10:02:03.476Z,50.21
2023-06-06T10:04:30.942Z,50.71
2023-06-06T10:07:00.605Z,50.49
2023-06-06T10:09:28.167Z,50.99
2023-06-06T10:11:56.030Z,50.62
2023-06-06T10:14:24.298Z,49.44
2023-06-06T10:16:51.939Z,49.66
2023-06-06T10:19:20.647Z,50.08
2023-06-06T10:21:49.540Z,50.88
2023-06-06T10:24:17.053Z,49.31
2023-06-06T10:26:54.160Z,49.25
2023-06-06T10:29:38.696Z,48.15
2023-06-06T10:32:15.689Z,48.33
2023-06-06T10:34:48.029Z,48.03
2023-06-06T10:37:16.638Z,47.70
2023-06-06T10:39:47.541Z,47.75
2023-06-06T10:42:14.933Z,46.87
2023-06-06T10:44:47.202Z,47.11
2023-06-06T10:47:22.902Z,46.82
2023-06-06T10:50:14.349Z,47.02
2023-06-06T10:52:57.964Z,46.78
2023-06-06T10:55:24.520Z,48.02
2023-06-06T10:57:54.207Z,48.24
2023-06-06T11:00:25.626Z,47.00
2023-06-06T11:03:01.737Z,46.45
2023-06-06T11:05:29.209Z,45.42
2023-06-06T11:08:00.585Z,46.30
2023-06-06T11:10:27.030Z,46.22
2023-06-06T11:12:55.052Z,46.95
2023-06-06T11:15:30.217Z,46.86
2023-06-06T11:18:06.190Z,46.81
2023-06-06T11:20:42.880Z,45.64
2023-06-06T11:23:12.200Z,45.22
2023-06-06T11:25:38.837Z,46.88
2023-06-06T11:28:10.199Z,45.38
2023-06-06T11:30:40.923Z,45.57
2023-06-06T11:33:13.331Z,44.91
2023-06-06T11:35:41.104Z,44.61
2023-06-06T11:38:07.809Z,44.99
2023-06-06T11:40:34.428Z,44.13
2023-06-06T11:43:01.520Z,44.85
2023-06-06T11:45:28.382Z,45.05
2023-06-06T11:48:06.752Z,45.15
2023-06-06T11:50:41.226Z,45.21
2023-06-06T11:53:07.919Z,44.07
2023-06-06T11:55:38.545Z,45.68
2023-06-06T11:58:05.616Z,44.62
2023-06-06T12:00:32.186Z,44.18
2023-06-06T12:03:00.748Z,44.56
2023-06-06T12:05:27.701Z,45.06
2023-06-06T12:07:58.961Z,43.97
2023-06-06T12:10:32.712Z,44.93
2023-06-06T12:13:00.548Z,44.11
2023-06-06T12:15:49.288Z,43.96
2023-06-06T12:18:17.553Z,42.99
2023-06-06T12:20:44.845Z,43.18
2023-06-06T12:23:11.320Z,43.86
2023-06-06T12:25:37.780Z,43.61
2023-06-06T12:28:11.685Z,43.51
2023-06-06T12:30:40.208Z,42.13
2023-06-06T12:33:07.970Z,43.28
2023-06-06T12:35:34.552Z,42.09
2023-06-06T12:38:02.574Z,43.26
2023-06-06T12:40:35.222Z,41.61
2023-06-06T12:43:07.572Z,42.12
2023-06-06T12:45:38.989Z,42.99
2023-06-06T12:48:06.557Z,43.01
2023-06-06T12:50:33.164Z,42.53
2023-06-06T12:52:59.905Z,44.28
2023-06-06T12:55:26.562Z,43.01
2023-06-06T12:57:53.294Z,42.69
2023-06-06T13:00:20.460Z,43.55
2023-06-06T13:02:47.897Z,43.33
2023-06-06T13:05:14.850Z,42.90
2023-06-06T13:07:41.332Z,42.26
2023-06-06T13:10:09.969Z,42.89
2023-06-06T13:12:41.345Z,42.75
2023-06-06T13:15:11.478Z,42.52
2023-06-06T13:17:39.493Z,43.02
2023-06-06T13:20:12.822Z,42.44
2023-06-06T13:22:41.279Z,41.60
2023-06-06T13:25:09.220Z,42.35
2023-06-06T13:27:35.676Z,43.26
2023-06-06T13:30:02.147Z,41.79
2023-06-06T13:32:28.741Z,42.40
2023-06-06T13:34:55.446Z,42.26
2023-06-06T13:37:22.778Z,41.89
2023-06-06T13:39:49.414Z,41.53
2023-06-06T13:42:16.232Z,41.53
2023-06-06T13:44:42.722Z,44.19
2023-06-06T13:47:09.205Z,44.15
2023-06-06T13:49:35.625Z,43.73
2023-06-06T13:52:02.009Z,42.82
2023-06-06T13:54:28.506Z,44.04
2023-06-06T13:56:55.859Z,43.78
2023-06-06T13:59:22.792Z,44.53
2023-06-06T14:01:52.104Z,44.18
2023-06-06T14:04:19.645Z,44.22
2023-06-06T14:06:46.325Z,44.54
2023-06-06T14:09:15.808Z,45.05
2023-06-06T14:11:45.579Z,44.75
2023-06-06T14:14:12.619Z,45.12
2023-06-06T14:16:39.253Z,44.59
2023-06-06T14:19:06.002Z,44.67
2023-06-06T14:21:38.524Z,44.35
2023-06-06T14:24:06.035Z,44.86
2023-06-06T14:26:32.467Z,45.13
2023-06-06T14:28:58.834Z,46.02
2023-06-06T14:31:25.918Z,44.87
2023-06-06T14:33:52.568Z,44.28
2023-06-06T14:36:19.473Z,44.93
2023-06-06T14:38:46.247Z,45.53
2023-06-06T14:41:12.745Z,45.19
2023-06-06T14:43:39.246Z,45.08
2023-06-06T14:46:05.811Z,46.71
2023-06-06T14:48:32.591Z,45.06
2023-06-06T14:50:58.905Z,45.18
2023-06-06T14:53:25.541Z,45.69
2023-06-06T14:56:03.057Z,44.47
2023-06-06T14:58:33.541Z,45.71
2023-06-06T15:01:00.027Z,44.55
2023-06-06T15:03:27.509Z,45.18
2023-06-06T15:05:54.049Z,44.78
2023-06-06T15:08:20.765Z,44.94
2023-06-06T15:10:47.189Z,45.66
2023-06-06T15:13:13.589Z,45.80
2023-06-06T15:15:40.928Z,45.45
2023-06-06T15:18:07.589Z,45.99
2023-06-06T15:20:34.359Z,46.09
2023-06-06T15:23:01.171Z,45.36
2023-06-06T15:25:27.782Z,45.47
2023-06-06T15:27:54.196Z,46.43
2023-06-06T15:30:20.870Z,45.94
2023-06-06T15:32:49.757Z,45.95
2023-06-06T15:35:16.586Z,46.28
2023-06-06T15:37:43.058Z,46.40
2023-06-06T15:40:10.277Z,46.11
2023-06-06T15:42:36.882Z,46.30
2023-06-06T15:45:04.185Z,46.04
2023-06-06T15:47:31.200Z,46.16
2023-06-06T15:49:57.626Z,46.58
2023-06-06T15:52:24.324Z,46.71
2023-06-06T15:54:50.737Z,46.53
2023-06-06T15:57:17.131Z,46.79
2023-06-06T15:59:43.502Z,47.38
2023-06-06T16:02:11.336Z,47.83
2023-06-06T16:04:40.260Z,47.70
2023-06-06T16:07:06.812Z,47.16
2023-06-06T16:09:33.254Z,48.28
2023-06-06T16:11:59.807Z,48.28
2023-06-06T16:14:26.386Z,47.05
2023-06-06T16:16:53.487Z,48.03
2023-06-06T16:19:19.971Z,47.46
2023-06-06T16:21:47.746Z,47.70
2023-06-06T16:24:14.243Z,48.41
2023-06-06T16:26:41.462Z,47.78
2023-06-06T16:29:07.994Z,47.98
2023-06-06T16:31:34.712Z,48.05
2023-06-06T16:34:01.236Z,47.90
2023-06-06T16:36:27.838Z,47.80
2023-06-06T16:38:54.240Z,49.35
2023-06-06T16:41:22.988Z,48.06
2023-06-06T16:43:49.489Z,48.16
2023-06-06T16:46:16.172Z,48.19
2023-06-06T16:48:42.697Z,48.33
2023-06-06T16:51:09.053Z,48.27
2023-06-06T16:53:35.567Z,48.59
2023-06-06T16:56:02.063Z,48.46
2023-06-06T16:58:28.487Z,48.61
2023-06-06T17:00:55.014Z,48.66
2023-06-06T17:03:21.669Z,48.64
2023-06-06T17:05:50.078Z,49.07
2023-06-06T17:08:18.198Z,48.91
2023-06-06T17:10:44.644Z,49.50
2023-06-06T17:13:11.099Z,50.18
2023-06-06T17:15:37.692Z,49.73
2023-06-06T17:18:04.296Z,50.09
2023-06-06T17:20:30.808Z,50.22
2023-06-06T17:22:57.356Z,50.31
2023-06-06T17:25:28.686Z,50.28
2023-06-06T17:28:01.062Z,50.65
2023-06-06T17:30:28.199Z,51.10
2023-06-06T17:32:54.673Z,50.94
2023-06-06T17:35:22.473Z,50.85
2023-06-06T17:37:48.863Z,51.67
2023-06-06T17:40:15.467Z,50.56
2023-06-06T17:42:41.882Z,51.04
2023-06-06T17:45:09.380Z,51.68
2023-06-06T17:47:35.921Z,51.75
2023-06-06T17:50:03.114Z,51.82
2023-06-06T17:52:29.592Z,51.93
2023-06-06T17:54:56.243Z,52.02
2023-06-06T17:57:22.723Z,51.65
2023-06-06T17:59:49.197Z,52.59
2023-06-06T18:02:15.613Z,52.37
2023-06-06T18:04:42.332Z,52.28
2023-06-06T18:07:09.067Z,52.66
2023-06-06T18:09:35.477Z,52.57
2023-06-06T18:12:02.935Z,52.69
2023-06-06T18:14:29.563Z,53.08
2023-06-06T18:16:57.111Z,53.34
2023-06-06T18:19:23.526Z,53.50
2023-06-06T18:21:49.979Z,53.20
2023-06-06T18:24:16.523Z,53.67
2023-06-06T18:26:43.014Z,53.74
2023-06-06T18:29:09.770Z,53.57
2023-06-06T18:31:38.736Z,54.50
2023-06-06T18:34:06.965Z,54.69
2023-06-06T18:36:34.219Z,55.00
2023-06-06T18:39:00.871Z,54.37
2023-06-06T18:41:27.826Z,55.27
2023-06-06T18:43:54.182Z,54.35
2023-06-06T18:46:21.260Z,55.30
2023-06-06T18:48:48.590Z,55.23
2023-06-06T18:51:15.174Z,55.85
2023-06-06T18:53:42.040Z,55.57
2023-06-06T18:56:08.504Z,55.94
2023-06-06T18:58:34.992Z,55.85
2023-06-06T19:01:03.708Z,55.81
2023-06-06T19:03:30.282Z,55.85
2023-06-06T19:05:56.770Z,55.87
2023-06-06T19:08:23.313Z,55.84
2023-06-06T19:10:49.692Z,56.24
2023-06-06T19:13:16.171Z,55.93
2023-06-06T19:15:42.669Z,55.59
2023-06-06T19:18:22.937Z,56.36
2023-06-06T19:20:55.544Z,56.09
2023-06-06T19:23:22.132Z,56.37
2023-06-06T19:25:48.672Z,57.08
2023-06-06T19:28:15.152Z,56.44
2023-06-06T19:30:41.661Z,56.27
2023-06-06T19:33:09.911Z,56.27
2023-06-06T19:35:37.968Z,56.74
2023-06-06T19:38:04.397Z,57.03
2023-06-06T19:40:31.527Z,56.72
2023-06-06T19:42:57.922Z,56.73
2023-06-06T19:45:24.390Z,57.14
2023-06-06T19:47:51.055Z,57.25
2023-06-06T19:50:17.637Z,57.01
2023-06-06T19:52:44.318Z,57.50
2023-06-06T19:55:12.466Z,57.25
2023-06-06T19:57:42.621Z,57.59
2023-06-06T20:00:10.651Z,57.63
2023-06-06T20:02:37.142Z,58.77
2023-06-06T20:05:05.150Z,58.25
2023-06-06T20:07:31.612Z,57.79
2023-06-06T20:09:58.074Z,57.97
2023-06-06T20:12:24.566Z,58.35
2023-06-06T20:14:52.069Z,58.67
2023-06-06T20:17:18.563Z,58.82
2023-06-06T20:19:44.991Z,58.71
2023-06-06T20:22:11.725Z,59.02
2023-06-06T20:24:38.486Z,59.38
2023-06-06T20:27:13.370Z,59.46
2023-06-06T20:29:39.888Z,59.48
2023-06-06T20:32:06.894Z,59.41
2023-06-06T20:34:33.351Z,59.67
2023-06-06T20:37:01.871Z,60.40
2023-06-06T20:39:40.538Z,60.30
2023-06-06T20:42:07.732Z,60.51
2023-06-06T20:44:34.244Z,59.73
2023-06-06T20:47:03.082Z,60.66
2023-06-06T20:49:34.948Z,61.24
2023-06-06T20:52:05.629Z,60.92
2023-06-06T20:54:32.196Z,61.47
2023-06-06T20:56:58.689Z,61.80
2023-06-06T20:59:26.745Z,61.61
2023-06-06T21:01:53.968Z,61.81
2023-06-06T21:04:21.025Z,61.49
2023-06-06T21:06:47.472Z,61.92
2023-06-06T21:09:14.375Z,61.38
2023-06-06T21:11:40.905Z,61.59
2023-06-06T21:14:07.525Z,61.72
2023-06-06T21:16:34.180Z,61.68
2023-06-06T21:19:00.629Z,61.51
2023-06-06T21:21:27.035Z,61.75
2023-06-06T21:23:53.519Z,61.97
2023-06-06T21:26:20.025Z,62.29
2023-06-06T21:28:46.748Z,61.62
2023-06-06T21:31:13.312Z,62.09
2023-06-06T21:33:39.775Z,62.21
2023-06-06T21:36:06.494Z,62.29
2023-06-06T21:38:32.901Z,62.19
2023-06-06T21:40:59.314Z,62.66
2023-06-06T21:43:25.725Z,63.19
2023-06-06T21:45:52.180Z,63.19
2023-06-06T21:48:18.531Z,63.21
2023-06-06T21:50:44.950Z,63.26
2023-06-06T21:53:11.523Z,63.56
2023-06-06T21:55:38.113Z,63.53
2023-06-06T21:58:04.538Z,63.81
2023-06-06T22:00:31.041Z,63.84
2023-06-06T22:02:57.733Z,64.07
2023-06-06T22:05:24.390Z,64.11
2023-06-06T22:07:51.027Z,64.34
2023-06-06T22:10:17.759Z,64.23
2023-06-06T22:12:44.208Z,64.07
2023-06-06T22:15:11.228Z,64.56
2023-06-06T22:17:37.745Z,64.60
2023-06-06T22:20:05.779Z,64.55
2023-06-06T22:22:32.535Z,64.37
2023-06-06T22:24:59.146Z,64.78
2023-06-06T22:27:25.734Z,65.23
2023-06-06T22:29:52.164Z,65.40
2023-06-06T22:32:18.662Z,65.46
2023-06-06T22:34:45.219Z,65.38
2023-06-06T22:37:11.834Z,65.16
2023-06-06T22:39:38.302Z,65.95
2023-06-06T22:42:04.893Z,65.38
2023-06-06T22:44:31.432Z,65.71
2023-06-06T22:46:57.952Z,65.79
2023-06-06T22:49:24.357Z,65.34
2023-06-06T22:51:51.080Z,65.51
2023-06-06T22:54:17.747Z,65.48
2023-06-06T22:56:44.249Z,65.62
2023-06-06T22:59:10.739Z,65.76
2023-06-06T23:01:37.259Z,65.99
2023-06-06T23:04:03.864Z,65.95
2023-06-06T23:06:30.300Z,65.95
2023-06-06T23:08:57.695Z,66.52
2023-06-06T23:11:24.432Z,66.85
2023-06-06T23:13:50.866Z,66.76
2023-06-06T23:16:17.725Z,67.09
2023-06-06T23:18:44.512Z,67.17
2023-06-06T23:21:10.951Z,67.13
2023-06-06T23:23:37.486Z,67.33
2023-06-06T23:26:04.106Z,67.42
2023-06-06T23:28:30.707Z,67.74
2023-06-06T23:30:57.540Z,67.91
2023-06-06T23:33:25.007Z,67.93
2023-06-06T23:35:51.506Z,68.15
2023-06-06T23:38:18.256Z,68.08
2023-06-06T23:40:44.711Z,68.25
2023-06-06T23:43:13.028Z,68.34
2023-06-06T23:45:39.608Z,68.39
2023-06-06T23:48:06.297Z,68.54
2023-06-06T23:50:32.757Z,68.44
2023-06-06T23:52:59.121Z,68.76
2023-06-06T23:55:26.296Z,68.74
2023-06-06T23:57:53.003Z,69.05
